Terminal Aerodrome Forecast
Issued by NWS Billings, MT

Home | Current Version | Previous Version | Graphics & Text | Print | Product List | Glossary On
Versions: 1 2 3 4 5 6 7 8 9 10 11 12 13 14 15 16 17 18 19 20 21 22 23 24 25 26 27 28
000
FTUS45 KBYZ 202334
TAFMLS
TAF
KMLS 202334Z 2100/2124 34014KT P6SM BKN100
     FM210500 10007KT P6SM SCT100
     FM211200 08006KT P6SM VCSH BKN100
     FM211800 10005KT P6SM -RA SCT080 BKN100
     FM212100 30015G25KT P6SM VCTS SCT060CB BKN080=

USA.gov is the U.S. government's official web portal to all federal, state and local government web resources and services.